createdAt,value
2018-04-10T00:01:08.521Z,22.12
2018-04-10T00:03:34.759Z,22.12
2018-04-10T00:06:01.403Z,22.11
2018-04-10T00:08:27.623Z,22.08
2018-04-10T00:10:53.830Z,22.07
2018-04-10T00:13:20.286Z,22.07
2018-04-10T00:15:46.453Z,22.08
2018-04-10T00:18:13.049Z,22.06
2018-04-10T00:20:39.218Z,22.07
2018-04-10T00:23:05.380Z,22.07
2018-04-10T00:25:31.577Z,22.07
2018-04-10T00:27:58.078Z,22.07
2018-04-10T00:30:24.297Z,22.07
2018-04-10T00:32:50.565Z,22.07
2018-04-10T00:35:16.763Z,22.07
2018-04-10T00:37:42.915Z,22.07
2018-04-10T00:40:09.448Z,22.06
2018-04-10T00:42:35.610Z,22.06
2018-04-10T00:45:02.070Z,22.05
2018-04-10T00:47:28.274Z,22.05
2018-04-10T00:49:54.424Z,22.03
2018-04-10T00:52:21.012Z,22.04
2018-04-10T00:54:47.212Z,22.05
2018-04-10T00:57:13.725Z,22.04
2018-04-10T00:59:40.353Z,22.04
2018-04-10T01:02:06.555Z,22.04
2018-04-10T01:04:32.694Z,22.04
2018-04-10T01:06:58.948Z,22.03
2018-04-10T01:09:25.172Z,22.02
2018-04-10T01:11:51.392Z,22.01
2018-04-10T01:14:17.562Z,22.01
2018-04-10T01:16:44.073Z,22.00
2018-04-10T01:19:10.333Z,21.98
2018-04-10T01:21:36.612Z,21.98
2018-04-10T01:24:02.804Z,21.98
2018-04-10T01:26:28.972Z,21.97
2018-04-10T01:28:55.185Z,21.96
2018-04-10T01:31:21.352Z,21.95
2018-04-10T01:33:47.879Z,21.94
2018-04-10T01:36:14.087Z,21.95
2018-04-10T01:38:40.237Z,21.97
2018-04-10T01:41:06.658Z,21.97
2018-04-10T01:43:32.856Z,21.96
2018-04-10T01:45:59.070Z,21.96
2018-04-10T01:48:25.655Z,21.95
2018-04-10T01:50:51.924Z,21.95
2018-04-10T01:53:18.069Z,21.94
2018-04-10T01:55:45.231Z,21.95
2018-04-10T01:58:11.708Z,21.93
2018-04-10T02:00:37.900Z,21.93
2018-04-10T02:03:04.122Z,21.91
2018-04-10T02:05:30.340Z,21.91
2018-04-10T02:07:56.564Z,21.89
2018-04-10T02:10:41.023Z,21.88
2018-04-10T02:13:07.585Z,21.87
2018-04-10T02:15:33.761Z,21.85
2018-04-10T02:17:59.931Z,21.84
2018-04-10T02:20:26.121Z,21.85
2018-04-10T02:22:52.331Z,21.84
2018-04-10T02:25:18.576Z,21.83
2018-04-10T02:27:44.740Z,21.82
2018-04-10T02:30:10.900Z,21.83
2018-04-10T02:32:37.141Z,21.83
2018-04-10T02:35:03.319Z,21.82
2018-04-10T02:37:29.552Z,21.80
2018-04-10T02:39:55.833Z,21.78
2018-04-10T02:42:22.081Z,21.79
2018-04-10T02:44:48.238Z,21.79
2018-04-10T02:47:14.471Z,21.79
2018-04-10T02:49:40.705Z,21.77
2018-04-10T02:52:06.874Z,21.76
2018-04-10T02:54:33.105Z,21.75
2018-04-10T02:56:59.315Z,21.75
2018-04-10T02:59:25.548Z,21.74
2018-04-10T03:01:51.769Z,21.72
2018-04-10T03:04:17.968Z,21.72
2018-04-10T03:06:44.213Z,21.72
2018-04-10T03:09:10.393Z,21.73
2018-04-10T03:11:36.559Z,21.73
2018-04-10T03:14:02.817Z,21.72
2018-04-10T03:16:28.985Z,21.72
2018-04-10T03:18:55.157Z,21.71
2018-04-10T03:21:21.365Z,21.69
2018-04-10T03:23:47.638Z,21.69
2018-04-10T03:26:13.864Z,21.68
2018-04-10T03:28:40.356Z,21.68
2018-04-10T03:31:06.546Z,21.68
2018-04-10T03:33:32.755Z,21.67
2018-04-10T03:35:58.933Z,21.68
2018-04-10T03:38:25.110Z,21.68
2018-04-10T03:40:51.346Z,21.66
2018-04-10T03:43:17.517Z,21.65
2018-04-10T03:45:43.717Z,21.65
2018-04-10T03:48:09.957Z,21.64
2018-04-10T03:50:36.122Z,21.64
2018-04-10T03:53:02.408Z,21.63
2018-04-10T03:55:28.617Z,21.63
2018-04-10T03:57:54.820Z,21.62
2018-04-10T04:00:21.067Z,21.61
2018-04-10T04:02:47.235Z,21.61
2018-04-10T04:05:13.405Z,21.59
2018-04-10T04:07:40.205Z,21.59
2018-04-10T04:10:06.379Z,21.56
2018-04-10T04:12:32.583Z,21.55
2018-04-10T04:14:58.790Z,21.57
2018-04-10T04:17:32.918Z,21.55
2018-04-10T04:20:11.352Z,21.55
2018-04-10T04:22:37.676Z,21.56
2018-04-10T04:25:03.900Z,21.57
2018-04-10T04:27:30.067Z,21.57
2018-04-10T04:29:56.532Z,21.57
2018-04-10T04:32:23.130Z,21.56
2018-04-10T04:34:49.359Z,21.54
2018-04-10T04:37:15.512Z,21.57
2018-04-10T04:39:41.778Z,21.56
2018-04-10T04:42:08.304Z,21.53
2018-04-10T04:44:34.478Z,21.48
2018-04-10T04:47:00.669Z,21.45
2018-04-10T04:49:27.193Z,21.43
2018-04-10T04:51:53.390Z,21.42
2018-04-10T04:54:19.616Z,21.45
2018-04-10T04:56:45.778Z,21.42
2018-04-10T04:59:11.940Z,21.38
2018-04-10T05:01:38.139Z,21.35
2018-04-10T05:04:04.449Z,21.33
2018-04-10T05:06:30.666Z,21.30
2018-04-10T05:08:56.852Z,21.29
2018-04-10T05:11:23.379Z,21.28
2018-04-10T05:13:49.575Z,21.27
2018-04-10T05:16:15.745Z,21.28
2018-04-10T05:18:41.973Z,21.30
2018-04-10T05:21:08.199Z,21.34
2018-04-10T05:23:34.680Z,21.37
2018-04-10T05:26:02.319Z,21.36
2018-04-10T05:28:28.548Z,21.35
2018-04-10T05:30:54.709Z,21.34
2018-04-10T05:33:20.894Z,21.41
2018-04-10T05:35:53.985Z,21.47
2018-04-10T05:38:20.549Z,21.51
2018-04-10T05:40:46.983Z,21.54
2018-04-10T05:43:13.157Z,21.54
2018-04-10T05:45:39.386Z,21.57
2018-04-10T05:48:05.883Z,21.58
2018-04-10T05:50:32.093Z,21.59
2018-04-10T05:52:58.308Z,21.60
2018-04-10T05:55:24.525Z,21.60
2018-04-10T05:57:50.701Z,21.63
2018-04-10T06:00:17.217Z,21.67
2018-04-10T06:02:43.468Z,21.70
2018-04-10T06:05:09.622Z,21.73
2018-04-10T06:07:35.812Z,21.75
2018-04-10T06:10:01.997Z,21.75
2018-04-10T06:12:28.472Z,21.74
2018-04-10T06:14:54.699Z,21.84
2018-04-10T06:17:21.524Z,21.86
2018-04-10T06:19:47.705Z,21.85
2018-04-10T06:22:13.877Z,21.86
2018-04-10T06:24:40.108Z,21.85
2018-04-10T06:27:06.542Z,21.85
2018-04-10T06:29:33.082Z,21.79
2018-04-10T06:31:59.305Z,21.84
2018-04-10T06:34:25.713Z,21.84
2018-04-10T06:36:51.865Z,21.86
2018-04-10T06:39:18.470Z,21.86
2018-04-10T06:41:44.629Z,21.86
2018-04-10T06:44:10.795Z,21.88
2018-04-10T06:46:37.296Z,21.89
2018-04-10T06:49:03.469Z,21.91
2018-04-10T06:51:29.712Z,21.92
2018-04-10T06:53:55.946Z,21.93
2018-04-10T06:56:22.157Z,21.94
2018-04-10T06:58:48.327Z,21.94
2018-04-10T07:01:14.523Z,21.96
2018-04-10T07:03:40.709Z,21.98
2018-04-10T07:06:06.920Z,21.99
2018-04-10T07:08:33.515Z,22.02
2018-04-10T07:10:59.703Z,22.00
2018-04-10T07:13:25.939Z,22.01
2018-04-10T07:15:52.172Z,22.03
2018-04-10T07:18:18.347Z,22.05
2018-04-10T07:20:44.516Z,22.03
2018-04-10T07:23:10.715Z,22.09
2018-04-10T07:25:36.917Z,22.10
2018-04-10T07:28:03.523Z,22.15
2018-04-10T07:30:29.946Z,22.18
2018-04-10T07:32:56.173Z,22.15
2018-04-10T07:35:22.367Z,22.17
2018-04-10T07:37:48.707Z,22.19
2018-04-10T07:40:14.874Z,22.19
2018-04-10T07:42:41.070Z,22.23
2018-04-10T07:45:07.355Z,22.23
2018-04-10T07:47:33.537Z,22.21
2018-04-10T07:49:59.751Z,22.21
2018-04-10T07:52:25.917Z,22.22
2018-04-10T07:54:52.127Z,22.25
2018-04-10T07:57:18.359Z,22.30
2018-04-10T07:59:44.514Z,22.32
2018-04-10T08:02:10.760Z,22.33
2018-04-10T08:04:36.927Z,22.30
2018-04-10T08:07:03.494Z,22.29
2018-04-10T08:09:29.668Z,22.30
2018-04-10T08:11:55.837Z,22.31
2018-04-10T08:14:22.091Z,22.31
2018-04-10T08:16:48.268Z,22.33
2018-04-10T08:19:14.506Z,22.35
2018-04-10T08:21:40.676Z,22.36
2018-04-10T08:24:06.952Z,22.36
2018-04-10T08:26:33.197Z,22.39
2018-04-10T08:28:59.368Z,22.39
2018-04-10T08:31:25.811Z,22.40
2018-04-10T08:33:52.092Z,22.39
2018-04-10T08:36:18.259Z,22.40
2018-04-10T08:38:44.427Z,22.40
2018-04-10T08:41:10.655Z,22.41
2018-04-10T08:43:37.162Z,22.43
2018-04-10T08:46:03.378Z,22.38
2018-04-10T08:48:29.918Z,22.47
2018-04-10T08:50:56.119Z,22.52
2018-04-10T08:53:22.294Z,22.54
2018-04-10T08:55:48.502Z,22.54
2018-04-10T08:58:14.709Z,22.56
2018-04-10T09:00:40.908Z,22.60
2018-04-10T09:03:07.168Z,22.60
2018-04-10T09:05:33.324Z,22.63
2018-04-10T09:07:59.484Z,22.63
2018-04-10T09:10:25.698Z,22.64
2018-04-10T09:12:51.878Z,22.67
2018-04-10T09:15:18.118Z,22.66
2018-04-10T09:17:44.277Z,22.68
2018-04-10T09:20:10.684Z,22.68
2018-04-10T09:22:36.877Z,22.67
2018-04-10T09:25:03.175Z,22.66
2018-04-10T09:27:29.341Z,22.66
2018-04-10T09:29:55.568Z,22.66
2018-04-10T09:32:21.851Z,22.65
2018-04-10T09:34:48.067Z,22.66
2018-04-10T09:37:14.481Z,22.65
2018-04-10T09:39:40.655Z,22.65
2018-04-10T09:42:06.813Z,22.64
2018-04-10T09:44:33.026Z,22.63
2018-04-10T09:46:59.190Z,22.63
2018-04-10T09:49:25.337Z,22.63
2018-04-10T09:51:51.857Z,22.63
2018-04-10T09:54:18.064Z,22.63
2018-04-10T09:56:44.260Z,22.64
2018-04-10T09:59:10.451Z,22.67
2018-04-10T10:01:36.641Z,22.70
2018-04-10T10:04:02.867Z,22.70
2018-04-10T10:06:29.938Z,22.71
2018-04-10T10:08:56.129Z,22.71
2018-04-10T10:11:22.329Z,22.72
2018-04-10T10:13:48.600Z,22.73
2018-04-10T10:16:14.774Z,22.75
2018-04-10T10:18:40.956Z,22.74
2018-04-10T10:21:07.103Z,22.83
2018-04-10T10:23:33.378Z,22.88
2018-04-10T10:25:59.592Z,22.89
2018-04-10T10:28:26.595Z,22.91
2018-04-10T10:30:52.795Z,22.95
2018-04-10T10:33:19.016Z,22.98
2018-04-10T10:35:45.210Z,23.01
2018-04-10T10:38:11.365Z,23.03
2018-04-10T10:40:37.581Z,23.06
2018-04-10T10:43:04.075Z,23.10
2018-04-10T10:45:30.254Z,23.13
2018-04-10T10:47:56.842Z,23.16
2018-04-10T10:50:23.100Z,23.19
2018-04-10T10:52:49.278Z,23.21
2018-04-10T10:55:15.580Z,23.25
2018-04-10T10:57:41.809Z,23.29
2018-04-10T11:00:08.933Z,23.32
2018-04-10T11:02:35.208Z,23.34
2018-04-10T11:05:01.670Z,23.38
2018-04-10T11:07:27.944Z,23.40
2018-04-10T11:09:54.424Z,23.45
2018-04-10T11:12:20.869Z,23.46
2018-04-10T11:14:47.069Z,23.50
2018-04-10T11:17:13.251Z,23.54
2018-04-10T11:19:39.413Z,23.53
2018-04-10T11:22:05.883Z,23.58
2018-04-10T11:24:32.042Z,23.60
2018-04-10T11:26:58.294Z,23.61
2018-04-10T11:29:24.440Z,23.64
2018-04-10T11:31:50.690Z,23.64
2018-04-10T11:34:17.229Z,23.68
2018-04-10T11:36:43.397Z,23.70
2018-04-10T11:39:09.936Z,23.72
2018-04-10T11:41:36.118Z,23.74
2018-04-10T11:44:02.308Z,23.73
2018-04-10T11:46:28.520Z,23.79
2018-04-10T11:48:54.676Z,23.82
2018-04-10T11:51:20.881Z,23.86
2018-04-10T11:53:47.084Z,23.89
2018-04-10T11:56:13.237Z,23.90
2018-04-10T11:58:39.726Z,23.90
2018-04-10T12:01:05.920Z,23.90
2018-04-10T12:03:32.105Z,23.94
2018-04-10T12:05:58.525Z,23.99
2018-04-10T12:08:24.766Z,24.03
2018-04-10T12:10:51.267Z,24.06
2018-04-10T12:13:17.432Z,24.09
2018-04-10T12:15:43.925Z,24.13
2018-04-10T12:18:10.133Z,24.17
2018-04-10T12:20:36.344Z,24.17
2018-04-10T12:23:02.495Z,24.19
2018-04-10T12:25:28.747Z,24.25
2018-04-10T12:27:55.063Z,24.24
2018-04-10T12:30:21.259Z,24.29
2018-04-10T12:32:47.580Z,24.31
2018-04-10T12:35:13.844Z,24.34
2018-04-10T12:37:40.391Z,24.35
2018-04-10T12:40:06.571Z,24.39
2018-04-10T12:42:32.813Z,24.42
2018-04-10T12:44:58.966Z,24.44
2018-04-10T12:47:25.136Z,24.45
2018-04-10T12:49:51.362Z,24.47
2018-04-10T12:52:17.538Z,24.42
2018-04-10T12:54:43.696Z,24.49
2018-04-10T12:57:09.877Z,24.50
2018-04-10T12:59:36.045Z,24.52
2018-04-10T13:02:02.244Z,24.56
2018-04-10T13:04:28.459Z,24.58
2018-04-10T13:06:54.700Z,24.61
2018-04-10T13:09:21.166Z,24.64
2018-04-10T13:11:47.595Z,24.69
2018-04-10T13:14:13.829Z,24.74
2018-04-10T13:16:40.341Z,24.79
2018-04-10T13:19:06.541Z,24.81
2018-04-10T13:21:33.308Z,24.84
2018-04-10T13:23:59.464Z,24.86
2018-04-10T13:26:25.610Z,24.91
2018-04-10T13:28:52.101Z,24.95
2018-04-10T13:31:18.257Z,25.02
2018-04-10T13:33:44.479Z,25.07
2018-04-10T13:36:10.720Z,25.10
2018-04-10T13:38:36.920Z,25.15
2018-04-10T13:41:03.144Z,25.22
2018-04-10T13:43:29.559Z,25.26
2018-04-10T13:45:55.762Z,25.30
2018-04-10T13:48:21.925Z,25.35
2018-04-10T13:50:48.249Z,25.39
2018-04-10T13:53:14.421Z,25.43
2018-04-10T13:55:40.661Z,25.44
2018-04-10T13:58:06.881Z,25.46
2018-04-10T14:00:33.090Z,25.48
2018-04-10T14:02:59.352Z,25.47
2018-04-10T14:05:25.643Z,25.43
2018-04-10T14:07:51.836Z,25.45
2018-04-10T14:10:18.042Z,25.49
2018-04-10T14:12:44.509Z,25.57
2018-04-10T14:15:10.948Z,25.64
2018-04-10T14:17:37.172Z,25.71
2018-04-10T14:20:03.327Z,25.76
2018-04-10T14:22:29.543Z,25.82
2018-04-10T14:24:55.742Z,25.91
2018-04-10T14:27:21.942Z,26.00
2018-04-10T14:29:48.169Z,26.08
2018-04-10T14:32:14.417Z,26.21
2018-04-10T14:34:40.633Z,26.41
2018-04-10T14:37:06.964Z,26.92
2018-04-10T14:39:33.190Z,27.81
2018-04-10T14:41:59.406Z,27.48
2018-04-10T14:44:25.639Z,27.98
2018-04-10T14:46:52.139Z,28.79
2018-04-10T14:49:18.368Z,29.02
2018-04-10T14:51:45.083Z,28.48
2018-04-10T14:54:11.510Z,29.16
2018-04-10T14:56:37.687Z,28.69
2018-04-10T14:59:03.872Z,28.17
2018-04-10T15:01:30.028Z,28.43
2018-04-10T15:03:56.264Z,28.61
2018-04-10T15:06:22.441Z,28.74
2018-04-10T15:08:48.621Z,29.30
2018-04-10T15:11:15.332Z,29.21
2018-04-10T15:13:41.499Z,29.28
2018-04-10T15:16:07.713Z,29.60
2018-04-10T15:18:34.326Z,29.82
2018-04-10T15:21:00.943Z,29.96
2018-04-10T15:23:27.144Z,29.98
2018-04-10T15:25:53.573Z,29.98
2018-04-10T15:28:20.036Z,30.02
2018-04-10T15:30:46.420Z,30.09
2018-04-10T15:33:12.619Z,30.10
2018-04-10T15:35:38.786Z,30.11
2018-04-10T15:38:05.098Z,30.07
2018-04-10T15:40:31.269Z,30.05
2018-04-10T15:42:57.573Z,30.01
2018-04-10T15:45:24.054Z,29.86
2018-04-10T15:47:50.290Z,29.48
2018-04-10T15:50:16.456Z,28.81
2018-04-10T15:52:42.648Z,27.57
2018-04-10T15:55:08.896Z,27.00
2018-04-10T15:57:35.320Z,26.89
2018-04-10T16:00:01.527Z,26.77
2018-04-10T16:02:27.736Z,26.78
2018-04-10T16:04:53.905Z,26.56
2018-04-10T16:07:20.113Z,26.39
2018-04-10T16:09:46.346Z,26.22
2018-04-10T16:12:12.515Z,26.04
2018-04-10T16:14:38.788Z,25.97
2018-04-10T16:17:04.961Z,26.01
2018-04-10T16:19:31.454Z,26.33
2018-04-10T16:21:57.795Z,26.67
2018-04-10T16:24:24.328Z,26.50
2018-04-10T16:26:50.533Z,26.35
2018-04-10T16:29:16.747Z,26.10
2018-04-10T16:31:43.301Z,25.75
2018-04-10T16:34:09.473Z,25.55
2018-04-10T16:36:35.640Z,25.47
2018-04-10T16:39:01.873Z,25.44
2018-04-10T16:41:28.069Z,25.43
2018-04-10T16:43:54.313Z,25.41
2018-04-10T16:46:20.579Z,25.41
2018-04-10T16:48:46.820Z,25.40
2018-04-10T16:51:13.040Z,25.34
2018-04-10T16:53:39.311Z,25.30
2018-04-10T16:56:05.532Z,25.26
2018-04-10T16:58:31.763Z,25.20
2018-04-10T17:00:57.923Z,25.16
2018-04-10T17:03:24.448Z,25.12
2018-04-10T17:05:50.591Z,25.08
2018-04-10T17:08:16.835Z,25.03
2018-04-10T17:10:43.068Z,24.98
2018-04-10T17:13:09.344Z,24.94
2018-04-10T17:15:35.572Z,24.87
2018-04-10T17:18:01.724Z,24.80
2018-04-10T17:20:27.935Z,24.73
2018-04-10T17:22:54.165Z,24.64
2018-04-10T17:25:20.344Z,24.55
2018-04-10T17:27:46.510Z,24.44
2018-04-10T17:30:12.952Z,24.35
2018-04-10T17:32:39.096Z,24.25
2018-04-10T17:35:05.315Z,24.18
2018-04-10T17:37:31.763Z,24.08
2018-04-10T17:39:58.001Z,23.95
2018-04-10T17:42:24.164Z,23.84
2018-04-10T17:44:50.656Z,23.75
2018-04-10T17:47:16.825Z,23.65
2018-04-10T17:49:42.990Z,23.57
2018-04-10T17:52:09.191Z,23.48
2018-04-10T17:54:35.401Z,23.40
2018-04-10T17:57:01.792Z,23.33
2018-04-10T17:59:28.016Z,23.23
2018-04-10T18:01:54.209Z,23.17
2018-04-10T18:04:20.380Z,23.12
2018-04-10T18:06:46.561Z,23.06
2018-04-10T18:09:12.733Z,23.00
2018-04-10T18:11:38.976Z,22.95
2018-04-10T18:14:05.142Z,22.89
2018-04-10T18:16:31.680Z,22.85
2018-04-10T18:18:59.920Z,22.82
2018-04-10T18:21:26.144Z,22.81
2018-04-10T18:23:52.329Z,22.82
2018-04-10T18:26:18.550Z,22.83
2018-04-10T18:28:44.775Z,22.85
2018-04-10T18:31:10.972Z,22.83
2018-04-10T18:33:37.299Z,22.80
2018-04-10T18:36:03.533Z,22.78
2018-04-10T18:38:29.736Z,22.76
2018-04-10T18:40:55.967Z,22.75
2018-04-10T18:43:22.164Z,22.74
2018-04-10T18:45:48.418Z,22.72
2018-04-10T18:48:14.575Z,22.70
2018-04-10T18:50:41.069Z,22.68
2018-04-10T18:53:07.247Z,22.67
2018-04-10T18:55:33.695Z,22.66
2018-04-10T18:57:59.880Z,22.63
2018-04-10T19:00:26.052Z,22.62
2018-04-10T19:02:52.225Z,22.60
2018-04-10T19:05:18.842Z,22.59
2018-04-10T19:07:45.028Z,22.55
2018-04-10T19:10:11.232Z,22.55
2018-04-10T19:12:37.454Z,22.53
2018-04-10T19:15:03.614Z,22.52
2018-04-10T19:17:29.787Z,22.51
2018-04-10T19:19:56.028Z,22.50
2018-04-10T19:22:22.185Z,22.47
2018-04-10T19:24:48.368Z,22.43
2018-04-10T19:27:14.556Z,22.39
2018-04-10T19:29:40.768Z,22.38
2018-04-10T19:32:06.962Z,22.40
2018-04-10T19:34:33.147Z,22.38
2018-04-10T19:36:59.604Z,22.37
2018-04-10T19:39:26.144Z,22.36
2018-04-10T19:41:52.366Z,22.36
2018-04-10T19:44:19.252Z,22.37
2018-04-10T19:46:45.644Z,22.35
2018-04-10T19:49:11.838Z,22.33
2018-04-10T19:51:38.072Z,22.34
2018-04-10T19:54:04.537Z,22.38
2018-04-10T19:56:30.721Z,22.37
2018-04-10T19:58:56.872Z,22.34
2018-04-10T20:01:23.056Z,22.32
2018-04-10T20:03:49.248Z,22.31
2018-04-10T20:06:15.462Z,22.28
2018-04-10T20:08:41.691Z,22.27
2018-04-10T20:11:07.907Z,22.25
2018-04-10T20:13:34.128Z,22.24
2018-04-10T20:16:00.329Z,22.22
2018-04-10T20:18:26.548Z,22.20
2018-04-10T20:20:52.745Z,22.18
2018-04-10T20:23:19.175Z,22.18
2018-04-10T20:25:45.380Z,22.17
2018-04-10T20:28:11.573Z,22.14
2018-04-10T20:30:37.803Z,22.15
2018-04-10T20:33:04.020Z,22.15
2018-04-10T20:35:30.181Z,22.14
2018-04-10T20:37:56.705Z,22.11
2018-04-10T20:40:22.874Z,22.09
2018-04-10T20:42:49.099Z,22.08
2018-04-10T20:45:15.352Z,22.08
2018-04-10T20:47:41.626Z,22.07
2018-04-10T20:50:08.181Z,22.07
2018-04-10T20:52:34.396Z,22.06
2018-04-10T20:55:00.646Z,22.05
2018-04-10T20:57:27.185Z,22.05
2018-04-10T20:59:53.719Z,22.07
2018-04-10T21:02:20.154Z,22.07
2018-04-10T21:04:46.404Z,22.06
2018-04-10T21:07:12.813Z,22.04
2018-04-10T21:09:39.399Z,22.04
2018-04-10T21:12:05.893Z,22.02
2018-04-10T21:14:32.317Z,22.01
2018-04-10T21:16:58.559Z,21.97
2018-04-10T21:19:24.979Z,21.94
2018-04-10T21:21:51.565Z,21.93
2018-04-10T21:24:18.053Z,21.93
2018-04-10T21:26:44.232Z,21.94
2018-04-10T21:29:10.422Z,21.95
2018-04-10T21:31:36.593Z,22.00
2018-04-10T21:34:02.776Z,22.01
2018-04-10T21:36:28.967Z,22.06
2018-04-10T21:38:55.258Z,22.06
2018-04-10T21:41:21.546Z,22.03
2018-04-10T21:43:47.870Z,22.01
2018-04-10T21:46:14.214Z,21.99
2018-04-10T21:48:40.383Z,21.98
2018-04-10T21:51:06.595Z,21.97
2018-04-10T21:53:32.770Z,21.96
2018-04-10T21:55:58.923Z,21.96
2018-04-10T21:58:25.487Z,21.94
2018-04-10T22:00:51.707Z,21.94
2018-04-10T22:03:17.872Z,21.99
2018-04-10T22:05:44.048Z,22.02
2018-04-10T22:08:10.270Z,22.01
2018-04-10T22:10:36.460Z,21.99
2018-04-10T22:13:02.688Z,21.99
2018-04-10T22:15:28.863Z,22.00
2018-04-10T22:17:55.036Z,21.98
2018-04-10T22:20:21.620Z,21.96
2018-04-10T22:22:48.164Z,21.94
2018-04-10T22:25:14.334Z,21.93
2018-04-10T22:27:40.982Z,21.91
2018-04-10T22:30:07.451Z,21.91
2018-04-10T22:32:33.841Z,21.91
2018-04-10T22:35:00.491Z,21.91
2018-04-10T22:37:26.913Z,21.91
2018-04-10T22:39:53.105Z,21.90
2018-04-10T22:42:19.329Z,21.89
2018-04-10T22:44:45.492Z,21.88
2018-04-10T22:47:11.694Z,21.88
2018-04-10T22:49:38.257Z,21.89
2018-04-10T22:52:04.472Z,21.88
2018-04-10T22:54:31.134Z,21.84
2018-04-10T22:56:57.311Z,21.79
2018-04-10T22:59:23.799Z,21.78
2018-04-10T23:01:50.382Z,21.76
2018-04-10T23:04:23.622Z,21.73
2018-04-10T23:06:49.826Z,21.72
2018-04-10T23:09:16.060Z,21.71
2018-04-10T23:11:42.620Z,21.70
2018-04-10T23:14:08.795Z,21.71
2018-04-10T23:16:35.039Z,21.69
2018-04-10T23:19:01.200Z,21.66
2018-04-10T23:21:27.860Z,21.64
2018-04-10T23:23:54.041Z,21.64
2018-04-10T23:26:20.267Z,21.61
2018-04-10T23:28:46.458Z,21.60
2018-04-10T23:31:12.643Z,21.59
2018-04-10T23:33:38.921Z,21.58
2018-04-10T23:36:05.454Z,21.57
2018-04-10T23:38:31.673Z,21.57
2018-04-10T23:40:58.019Z,21.56
2018-04-10T23:43:24.305Z,21.55
2018-04-10T23:45:50.763Z,21.53
2018-04-10T23:48:17.033Z,21.53
2018-04-10T23:50:43.236Z,21.51
2018-04-10T23:53:09.452Z,21.51
2018-04-10T23:55:36.038Z,21.50
2018-04-10T23:58:02.254Z,21.50
